Time;durP1;ratioP1;P1;durP2;ratioP2;P2;SDS_P1;SDS_P2;PMS_P1;PMS_P2;Temp;Humidity;BMP_temperature;BMP_pressure;BME280_temperature;BME280_humidity;BME280_pressure;Samples;Min_cycle;Max_cycle;Signal;HPM_P1;HPM_P2
2022/10/17 00:02:39;;;;;;;53.05;35.20;;;;;;;;;;6226472;28;20456;-70
2022/10/17 00:05:42;;;;;;;54.72;36.50;;;;;;;;;;6230125;28;20053;-67
2022/10/17 00:08:44;;;;;;;49.15;34.90;;;;;;;;;;6236887;28;20380;-67
2022/10/17 00:11:47;;;;;;;47.88;34.65;;;;;;;;;;6235050;28;20066;-68
2022/10/17 00:14:48;;;;;;;56.13;36.05;;;;;;;;;;6234784;28;20128;-68
2022/10/17 00:17:50;;;;;;;51.25;35.00;;;;;;;;;;6234923;28;20118;-67
2022/10/17 00:20:52;;;;;;;49.67;33.88;;;;;;;;;;6233646;28;20054;-68
2022/10/17 00:23:54;;;;;;;46.90;34.15;;;;;;;;;;6232258;28;20061;-67
2022/10/17 00:26:57;;;;;;;48.58;33.33;;;;;;;;;;6231432;28;20096;-68
2022/10/17 00:29:59;;;;;;;50.50;34.20;;;;;;;;;;6231543;28;20050;-68
2022/10/17 00:33:00;;;;;;;54.90;35.45;;;;;;;;;;6230672;28;20742;-67
2022/10/17 00:36:03;;;;;;;50.80;35.03;;;;;;;;;;6233703;28;20108;-67
2022/10/17 00:39:05;;;;;;;48.05;33.38;;;;;;;;;;6235411;28;20091;-67
2022/10/17 00:42:10;;;;;;;47.88;33.10;;;;;;;;;;6232501;28;20041;-67
2022/10/17 00:45:30;;;;;;;47.72;33.63;;;;;;;;;;6212719;28;20347;-69
2022/10/17 00:48:32;;;;;;;51.53;32.85;;;;;;;;;;6226394;28;20104;-69
2022/10/17 00:51:37;;;;;;;51.58;34.47;;;;;;;;;;6235589;28;20115;-69
2022/10/17 00:54:41;;;;;;;50.17;33.55;;;;;;;;;;6233743;28;20058;-70
2022/10/17 00:57:45;;;;;;;45.65;32.85;;;;;;;;;;6232526;28;20092;-69
2022/10/17 01:00:47;;;;;;;46.95;33.38;;;;;;;;;;6229648;28;20389;-70
2022/10/17 01:03:49;;;;;;;49.35;34.28;;;;;;;;;;6230551;28;20061;-69
2022/10/17 01:06:50;;;;;;;45.42;33.13;;;;;;;;;;6229930;28;20050;-69
2022/10/17 01:09:52;;;;;;;53.05;34.45;;;;;;;;;;6232179;28;20050;-69
2022/10/17 01:13:04;;;;;;;49.00;33.97;;;;;;;;;;6232049;28;20057;-69
2022/10/17 01:16:09;;;;;;;51.58;33.53;;;;;;;;;;6231679;28;20103;-69
2022/10/17 01:19:40;;;;;;;54.40;35.92;;;;;;;;;;6233178;28;20117;-69
2022/10/17 01:22:47;;;;;;;51.83;34.03;;;;;;;;;;6235562;28;20119;-69
2022/10/17 01:25:54;;;;;;;51.92;33.30;;;;;;;;;;6230216;28;20100;-69
2022/10/17 01:29:13;;;;;;;49.92;35.00;;;;;;;;;;6230605;28;20116;-68
2022/10/17 01:32:18;;;;;;;52.17;35.25;;;;;;;;;;6228729;28;20290;-68
2022/10/17 01:35:22;;;;;;;50.83;34.80;;;;;;;;;;6233820;28;20381;-66
2022/10/17 01:38:27;;;;;;;51.92;34.95;;;;;;;;;;6228176;28;20053;-70
2022/10/17 01:41:34;;;;;;;52.13;35.80;;;;;;;;;;6229368;28;20054;-69
2022/10/17 01:44:39;;;;;;;55.58;35.60;;;;;;;;;;6227974;28;20053;-69
2022/10/17 01:47:42;;;;;;;52.20;33.92;;;;;;;;;;6228325;28;20053;-69
2022/10/17 01:50:48;;;;;;;50.80;32.90;;;;;;;;;;6225496;28;20226;-68
2022/10/17 01:53:53;;;;;;;48.85;34.38;;;;;;;;;;6229223;28;20116;-67
2022/10/17 01:56:58;;;;;;;51.58;34.22;;;;;;;;;;6229278;28;20273;-69
2022/10/17 02:00:00;;;;;;;50.63;34.25;;;;;;;;;;6226952;28;20054;-69
2022/10/17 02:03:05;;;;;;;49.78;34.33;;;;;;;;;;6230184;28;21285;-68
2022/10/17 02:06:07;;;;;;;53.65;34.30;;;;;;;;;;6228554;28;20099;-69
2022/10/17 02:09:20;;;;;;;50.40;33.47;;;;;;;;;;6223138;28;20046;-69
2022/10/17 02:12:31;;;;;;;49.50;34.00;;;;;;;;;;6228975;28;20058;-69
2022/10/17 02:15:58;;;;;;;56.92;34.58;;;;;;;;;;6226277;28;20120;-66
2022/10/17 02:19:23;;;;;;;52.95;33.97;;;;;;;;;;6230061;28;20049;-69
2022/10/17 02:22:32;;;;;;;54.17;35.08;;;;;;;;;;6228004;28;20054;-69
2022/10/17 02:25:36;;;;;;;52.30;35.25;;;;;;;;;;6228809;28;20057;-68
2022/10/17 02:28:42;;;;;;;51.55;35.13;;;;;;;;;;6227922;28;20127;-69
2022/10/17 02:31:47;;;;;;;50.85;32.97;;;;;;;;;;6224955;28;20069;-68
2022/10/17 02:34:51;;;;;;;56.05;36.15;;;;;;;;;;6226094;28;20062;-69
2022/10/17 02:37:53;;;;;;;52.65;35.60;;;;;;;;;;6228028;28;20062;-67
2022/10/17 02:40:55;;;;;;;56.40;36.90;;;;;;;;;;6230099;28;20058;-69
2022/10/17 02:43:57;;;;;;;60.22;38.53;;;;;;;;;;6226698;28;20104;-68
2022/10/17 02:47:04;;;;;;;51.97;34.83;;;;;;;;;;6225997;28;20115;-68
2022/10/17 02:50:08;;;;;;;53.30;36.70;;;;;;;;;;6224128;28;20105;-68
2022/10/17 02:53:10;;;;;;;;;;;;;;;;;;6227061;28;20357;-68
2022/10/17 02:56:16;;;;;;;58.75;37.72;;;;;;;;;;6225818;28;19972;-68
2022/10/17 02:59:20;;;;;;;60.03;37.83;;;;;;;;;;6230006;28;20053;-68
2022/10/17 03:02:21;;;;;;;59.38;36.90;;;;;;;;;;6219012;28;187021;-68
2022/10/17 03:05:27;;;;;;;58.17;36.80;;;;;;;;;;6232369;28;20053;-68
2022/10/17 03:08:29;;;;;;;57.20;37.50;;;;;;;;;;6232503;28;20053;-68
2022/10/17 03:11:30;;;;;;;60.72;38.97;;;;;;;;;;6233302;28;20046;-68
2022/10/17 03:14:32;;;;;;;59.05;38.33;;;;;;;;;;6231779;28;20092;-68
2022/10/17 03:17:34;;;;;;;59.53;39.13;;;;;;;;;;6233712;28;20488;-68
2022/10/17 03:20:37;;;;;;;60.13;37.85;;;;;;;;;;6233312;28;20108;-68
2022/10/17 03:23:38;;;;;;;62.27;38.97;;;;;;;;;;6233070;28;20100;-67
2022/10/17 03:26:40;;;;;;;64.28;39.80;;;;;;;;;;6234893;28;20342;-68
2022/10/17 03:29:41;;;;;;;62.15;40.00;;;;;;;;;;6232198;28;20054;-68
2022/10/17 03:32:43;;;;;;;59.70;39.22;;;;;;;;;;6231762;28;20054;-68
2022/10/17 03:35:46;;;;;;;60.20;39.45;;;;;;;;;;6228152;28;20042;-68
2022/10/17 03:38:48;;;;;;;64.17;38.50;;;;;;;;;;6227722;28;20099;-68
2022/10/17 03:41:49;;;;;;;61.35;39.22;;;;;;;;;;6230973;28;20057;-67
2022/10/17 03:44:51;;;;;;;59.40;38.85;;;;;;;;;;6231084;28;20064;-68
2022/10/17 03:47:53;;;;;;;64.13;40.00;;;;;;;;;;6231552;28;20057;-69
2022/10/17 03:51:01;;;;;;;65.93;41.40;;;;;;;;;;6227693;28;20111;-68
2022/10/17 03:54:02;;;;;;;63.13;39.60;;;;;;;;;;6229568;28;20323;-68
2022/10/17 03:57:04;;;;;;;61.95;39.85;;;;;;;;;;6233265;28;20061;-68
2022/10/17 04:00:07;;;;;;;65.47;41.38;;;;;;;;;;6228883;28;21560;-67
2022/10/17 04:03:08;;;;;;;68.40;41.50;;;;;;;;;;6230609;28;20282;-67
2022/10/17 04:06:12;;;;;;;64.57;40.28;;;;;;;;;;6230606;28;20467;-68
2022/10/17 04:09:14;;;;;;;61.42;37.88;;;;;;;;;;6230355;28;20057;-68
2022/10/17 04:12:16;;;;;;;62.28;39.33;;;;;;;;;;6232486;28;20109;-68
2022/10/17 04:15:17;;;;;;;61.15;38.70;;;;;;;;;;6230803;28;20056;-68
2022/10/17 04:18:19;;;;;;;60.65;39.20;;;;;;;;;;6229956;28;20066;-68
2022/10/17 04:21:23;;;;;;;65.47;40.60;;;;;;;;;;6230626;28;20054;-68
2022/10/17 04:24:25;;;;;;;65.25;40.92;;;;;;;;;;6230740;28;20074;-68
2022/10/17 04:27:27;;;;;;;66.25;41.20;;;;;;;;;;6231128;28;20062;-69
2022/10/17 04:30:28;;;;;;;61.67;38.70;;;;;;;;;;6230595;28;20384;-68
2022/10/17 04:33:31;;;;;;;65.50;40.33;;;;;;;;;;6232212;28;20064;-66
2022/10/17 04:36:34;;;;;;;61.90;38.38;;;;;;;;;;6229489;28;20053;-69
2022/10/17 04:39:35;;;;;;;62.17;39.13;;;;;;;;;;6234749;28;20057;-68
2022/10/17 04:42:37;;;;;;;61.25;39.17;;;;;;;;;;6228804;28;20088;-67
2022/10/17 04:45:39;;;;;;;62.08;38.97;;;;;;;;;;6229706;28;20042;-68
2022/10/17 04:48:41;;;;;;;59.10;37.88;;;;;;;;;;6229432;28;20146;-68
2022/10/17 04:51:44;;;;;;;63.13;37.58;;;;;;;;;;6226077;28;20103;-67
2022/10/17 04:54:45;;;;;;;59.27;37.10;;;;;;;;;;6233424;28;20037;-68
2022/10/17 04:57:47;;;;;;;57.58;36.33;;;;;;;;;;6230130;28;20046;-66
2022/10/17 05:00:49;;;;;;;61.38;37.45;;;;;;;;;;6231169;28;20170;-68
2022/10/17 05:03:50;;;;;;;63.33;38.88;;;;;;;;;;6226966;28;20088;-63
2022/10/17 05:06:53;;;;;;;64.05;38.50;;;;;;;;;;6228596;28;20053;-65
2022/10/17 05:09:55;;;;;;;62.60;38.63;;;;;;;;;;6224347;28;20054;-66
2022/10/17 05:12:56;;;;;;;55.20;37.00;;;;;;;;;;6233040;28;20353;-66
2022/10/17 05:15:59;;;;;;;58.92;37.78;;;;;;;;;;6230033;28;20058;-66
2022/10/17 05:19:01;;;;;;;62.57;37.67;;;;;;;;;;6227877;28;20330;-66
2022/10/17 05:22:04;;;;;;;59.22;36.53;;;;;;;;;;6227426;28;20506;-65
2022/10/17 05:25:07;;;;;;;61.83;37.57;;;;;;;;;;6227957;28;20777;-64
2022/10/17 05:28:08;;;;;;;59.33;36.20;;;;;;;;;;6228407;28;20050;-65
2022/10/17 05:31:11;;;;;;;58.63;35.90;;;;;;;;;;6229411;28;20056;-65
2022/10/17 05:34:12;;;;;;;64.60;37.22;;;;;;;;;;6228287;28;20057;-69
2022/10/17 05:37:15;;;;;;;54.70;36.80;;;;;;;;;;6228910;28;20147;-66
2022/10/17 05:40:17;;;;;;;57.27;35.77;;;;;;;;;;6229956;28;20053;-62
2022/10/17 05:43:19;;;;;;;54.78;34.03;;;;;;;;;;6227705;28;20477;-65
2022/10/17 05:46:20;;;;;;;59.13;36.15;;;;;;;;;;6225332;28;20203;-64
2022/10/17 05:49:22;;;;;;;51.08;33.63;;;;;;;;;;6226753;28;20061;-64
2022/10/17 05:52:25;;;;;;;55.08;34.67;;;;;;;;;;6230805;28;20049;-64
2022/10/17 05:55:27;;;;;;;52.97;33.83;;;;;;;;;;6227345;28;20159;-65
2022/10/17 05:58:28;;;;;;;57.22;34.90;;;;;;;;;;6231676;28;20053;-64
2022/10/17 06:01:30;;;;;;;55.45;34.80;;;;;;;;;;6227105;28;20088;-65
2022/10/17 06:04:32;;;;;;;54.67;34.80;;;;;;;;;;6226389;28;20046;-65
2022/10/17 06:07:35;;;;;;;51.92;33.05;;;;;;;;;;6226349;28;20149;-66
2022/10/17 06:10:38;;;;;;;55.70;34.08;;;;;;;;;;6229243;28;20334;-65
2022/10/17 06:13:40;;;;;;;59.70;33.57;;;;;;;;;;6228365;28;20202;-64
2022/10/17 06:16:42;;;;;;;52.00;33.22;;;;;;;;;;6224307;28;20147;-66
2022/10/17 06:19:44;;;;;;;56.30;33.25;;;;;;;;;;6225891;28;20060;-67
2022/10/17 06:22:47;;;;;;;52.38;32.13;;;;;;;;;;6225618;28;20057;-67
2022/10/17 06:25:48;;;;;;;52.77;33.07;;;;;;;;;;6224124;28;20130;-65
2022/10/17 06:28:50;;;;;;;55.53;32.28;;;;;;;;;;6225766;28;20453;-67
2022/10/17 06:31:52;;;;;;;54.42;33.83;;;;;;;;;;6224357;28;20034;-65
2022/10/17 06:34:54;;;;;;;56.83;33.50;;;;;;;;;;6226463;28;20219;-65
2022/10/17 06:37:57;;;;;;;54.97;34.17;;;;;;;;;;6223593;28;20057;-65
2022/10/17 06:41:07;;;;;;;55.10;33.63;;;;;;;;;;6227720;28;20364;-66
2022/10/17 06:44:10;;;;;;;52.85;33.20;;;;;;;;;;6223362;28;20425;-66
2022/10/17 06:47:12;;;;;;;51.38;32.33;;;;;;;;;;6225543;28;20050;-65
2022/10/17 06:50:14;;;;;;;51.15;31.65;;;;;;;;;;6227972;28;20077;-65
2022/10/17 06:53:17;;;;;;;128.63;37.67;;;;;;;;;;6226965;28;20054;-65
2022/10/17 06:56:18;;;;;;;87.45;35.05;;;;;;;;;;6227104;28;20088;-65
2022/10/17 06:59:20;;;;;;;56.63;32.88;;;;;;;;;;6227777;28;20069;-65
2022/10/17 07:02:22;;;;;;;54.55;31.63;;;;;;;;;;6227039;28;20045;-65
2022/10/17 07:05:24;;;;;;;50.22;31.85;;;;;;;;;;6226262;28;20262;-65
2022/10/17 07:08:27;;;;;;;77.32;34.65;;;;;;;;;;6225792;28;20192;-65
2022/10/17 07:11:29;;;;;;;70.38;32.15;;;;;;;;;;6228385;28;20042;-67
2022/10/17 07:14:31;;;;;;;94.80;35.88;;;;;;;;;;6226377;28;20068;-64
2022/10/17 07:17:33;;;;;;;63.30;35.00;;;;;;;;;;6228006;28;20049;-68
2022/10/17 07:20:35;;;;;;;79.00;34.45;;;;;;;;;;6227536;28;20061;-64
2022/10/17 07:23:38;;;;;;;51.60;30.80;;;;;;;;;;6228896;28;20080;-65
2022/10/17 07:26:40;;;;;;;;;;;;;;;;;;6226556;28;20053;-64
2022/10/17 07:29:41;;;;;;;47.20;30.08;;;;;;;;;;6225621;28;19994;-65
2022/10/17 07:32:43;;;;;;;42.92;28.48;;;;;;;;;;6228178;28;20128;-64
2022/10/17 07:35:45;;;;;;;45.38;29.60;;;;;;;;;;6225984;28;20133;-64
2022/10/17 07:38:48;;;;;;;46.53;29.80;;;;;;;;;;6229806;28;20112;-65
2022/10/17 07:41:50;;;;;;;42.88;29.02;;;;;;;;;;6226506;28;20064;-65
2022/10/17 07:44:52;;;;;;;45.95;29.17;;;;;;;;;;6226523;28;20050;-65
2022/10/17 07:47:56;;;;;;;45.45;28.33;;;;;;;;;;6225557;28;20065;-65
2022/10/17 07:50:57;;;;;;;51.28;33.20;;;;;;;;;;6227346;28;20045;-65
2022/10/17 07:54:00;;;;;;;51.95;33.60;;;;;;;;;;6227145;28;20046;-64
2022/10/17 07:57:02;;;;;;;51.40;34.45;;;;;;;;;;6225753;28;20356;-64
2022/10/17 08:00:05;;;;;;;47.22;30.67;;;;;;;;;;6227881;28;20065;-65
2022/10/17 08:03:07;;;;;;;46.80;30.87;;;;;;;;;;6225678;28;20065;-65
2022/10/17 08:06:08;;;;;;;48.00;32.22;;;;;;;;;;6226245;28;20064;-64
2022/10/17 08:09:11;;;;;;;45.65;30.70;;;;;;;;;;6226889;28;20092;-65
2022/10/17 08:12:14;;;;;;;42.60;29.42;;;;;;;;;;6225828;28;20062;-65
2022/10/17 08:15:16;;;;;;;43.77;28.90;;;;;;;;;;6227002;28;20352;-64
2022/10/17 08:18:17;;;;;;;44.45;29.52;;;;;;;;;;6227107;28;20344;-65
2022/10/17 08:21:19;;;;;;;38.40;26.35;;;;;;;;;;6225340;28;20069;-64
2022/10/17 08:24:22;;;;;;;44.63;29.63;;;;;;;;;;6225135;28;20049;-65
2022/10/17 08:27:26;;;;;;;55.15;34.78;;;;;;;;;;6230028;28;20054;-65
2022/10/17 08:30:29;;;;;;;44.97;30.95;;;;;;;;;;6229556;28;20237;-65
2022/10/17 08:33:32;;;;;;;50.05;32.45;;;;;;;;;;6233523;28;20057;-65
2022/10/17 08:36:33;;;;;;;51.87;35.07;;;;;;;;;;6230256;28;20375;-65
2022/10/17 08:39:36;;;;;;;52.45;35.72;;;;;;;;;;6231510;28;20092;-64
2022/10/17 08:42:48;;;;;;;;;;;;;;;;;;6229504;28;20103;-65
2022/10/17 08:45:54;;;;;;;55.38;34.33;;;;;;;;;;6229017;28;19933;-65
2022/10/17 08:48:57;;;;;;;52.08;35.92;;;;;;;;;;6230390;28;20053;-65
2022/10/17 08:52:05;;;;;;;48.97;33.15;;;;;;;;;;6228719;28;20101;-65
2022/10/17 08:55:14;;;;;;;47.58;32.92;;;;;;;;;;6231296;28;20054;-65
2022/10/17 08:58:20;;;;;;;48.47;33.38;;;;;;;;;;6229431;28;20061;-65
2022/10/17 09:01:32;;;;;;;46.63;31.83;;;;;;;;;;6230270;28;20338;-65
2022/10/17 09:04:56;;;;;;;50.92;35.58;;;;;;;;;;6229638;28;20045;-65
2022/10/17 09:08:04;;;;;;;43.55;31.50;;;;;;;;;;6230208;28;20057;-65
2022/10/17 09:11:15;;;;;;;48.35;32.85;;;;;;;;;;6230600;28;20042;-65
2022/10/17 09:14:31;;;;;;;54.85;29.88;;;;;;;;;;6229813;28;20049;-65
2022/10/17 09:17:38;;;;;;;48.17;31.83;;;;;;;;;;6230788;28;20120;-67
2022/10/17 09:20:43;;;;;;;38.50;27.55;;;;;;;;;;6230933;28;20144;-65
2022/10/17 09:23:46;;;;;;;56.08;32.58;;;;;;;;;;6228729;28;20107;-65
2022/10/17 09:26:51;;;;;;;39.15;27.90;;;;;;;;;;6229484;28;20518;-66
2022/10/17 09:29:55;;;;;;;35.00;25.88;;;;;;;;;;6228182;28;20108;-64
2022/10/17 09:32:57;;;;;;;30.50;23.20;;;;;;;;;;6228302;28;20046;-65
2022/10/17 09:35:59;;;;;;;44.88;29.63;;;;;;;;;;6227248;28;20053;-64
2022/10/17 09:39:02;;;;;;;50.15;23.92;;;;;;;;;;6231184;28;20052;-65
2022/10/17 09:42:05;;;;;;;29.52;21.42;;;;;;;;;;6227789;28;20054;-64
2022/10/17 09:45:18;;;;;;;33.55;25.42;;;;;;;;;;6228895;28;20091;-64
2022/10/17 09:48:25;;;;;;;29.80;23.50;;;;;;;;;;6226348;28;20061;-65
2022/10/17 09:51:26;;;;;;;38.58;28.48;;;;;;;;;;6228337;28;20123;-65
2022/10/17 09:54:36;;;;;;;35.00;27.80;;;;;;;;;;6230918;28;20072;-64
2022/10/17 09:57:54;;;;;;;30.60;23.67;;;;;;;;;;6228605;28;20356;-64
2022/10/17 10:01:16;;;;;;;42.33;32.78;;;;;;;;;;6228185;28;20050;-65
2022/10/17 10:04:18;;;;;;;38.13;27.02;;;;;;;;;;6227491;28;20057;-64
2022/10/17 10:07:20;;;;;;;41.03;31.60;;;;;;;;;;6227809;28;20105;-65
2022/10/17 10:10:26;;;;;;;41.85;31.85;;;;;;;;;;6226687;28;20041;-64
2022/10/17 10:13:30;;;;;;;42.55;32.45;;;;;;;;;;6226721;28;20480;-64
2022/10/17 10:16:32;;;;;;;40.75;30.00;;;;;;;;;;6226358;28;20226;-64
2022/10/17 10:19:35;;;;;;;33.47;26.48;;;;;;;;;;6229586;28;20246;-64
2022/10/17 10:22:37;;;;;;;37.00;29.30;;;;;;;;;;6225491;28;20104;-66
2022/10/17 10:25:49;;;;;;;37.07;29.10;;;;;;;;;;6229211;28;20314;-67
2022/10/17 10:28:55;;;;;;;43.67;33.13;;;;;;;;;;6226648;28;20104;-64
2022/10/17 10:32:06;;;;;;;42.63;32.90;;;;;;;;;;6226698;28;20170;-64
2022/10/17 10:35:19;;;;;;;30.90;24.90;;;;;;;;;;6231028;28;20050;-64
2022/10/17 10:38:20;;;;;;;43.25;34.05;;;;;;;;;;6228974;28;20100;-64
2022/10/17 10:41:26;;;;;;;51.58;37.08;;;;;;;;;;6229264;28;20096;-66
2022/10/17 10:44:30;;;;;;;50.47;36.28;;;;;;;;;;6231506;28;20045;-66
2022/10/17 10:47:32;;;;;;;34.58;27.63;;;;;;;;;;6228786;28;20053;-67
2022/10/17 10:50:38;;;;;;;40.88;29.75;;;;;;;;;;6228555;28;20067;-66
2022/10/17 10:53:44;;;;;;;46.30;36.78;;;;;;;;;;6226496;28;20060;-66
2022/10/17 10:56:47;;;;;;;47.38;36.47;;;;;;;;;;6226296;28;20156;-66
2022/10/17 10:59:57;;;;;;;41.30;32.38;;;;;;;;;;6223718;28;20196;-67
2022/10/17 11:03:04;;;;;;;40.20;29.25;;;;;;;;;;6225220;28;20317;-67
2022/10/17 11:06:13;;;;;;;53.97;41.47;;;;;;;;;;6221303;28;20058;-64
2022/10/17 11:09:34;;;;;;;31.83;25.33;;;;;;;;;;6223632;28;20050;-63
2022/10/17 11:12:39;;;;;;;26.67;20.15;;;;;;;;;;6225842;28;20060;-64
2022/10/17 11:15:45;;;;;;;44.35;32.85;;;;;;;;;;6223671;28;20058;-66
2022/10/17 11:18:50;;;;;;;37.25;28.95;;;;;;;;;;6223187;28;20326;-66
2022/10/17 11:22:03;;;;;;;173.77;147.65;;;;;;;;;;6225846;28;20237;-63
2022/10/17 11:25:14;;;;;;;98.95;75.95;;;;;;;;;;6225501;28;20046;-63
2022/10/17 11:28:18;;;;;;;107.53;90.97;;;;;;;;;;6224085;28;20049;-64
2022/10/17 11:31:22;;;;;;;103.45;84.53;;;;;;;;;;6225619;28;20053;-65
2022/10/17 11:34:26;;;;;;;72.90;57.53;;;;;;;;;;6227817;28;20049;-64
2022/10/17 11:37:30;;;;;;;39.05;30.00;;;;;;;;;;6226656;28;20053;-63
2022/10/17 11:40:34;;;;;;;47.45;40.28;;;;;;;;;;6226259;28;20100;-63
2022/10/17 11:43:40;;;;;;;71.38;49.63;;;;;;;;;;6232932;28;20072;-63
2022/10/17 11:46:45;;;;;;;50.72;35.60;;;;;;;;;;6231766;28;20128;-62
2022/10/17 11:49:50;;;;;;;35.08;29.65;;;;;;;;;;6231716;28;20049;-63
2022/10/17 11:52:55;;;;;;;40.50;32.10;;;;;;;;;;6230579;28;20057;-62
2022/10/17 11:55:58;;;;;;;81.72;67.28;;;;;;;;;;6232434;28;20326;-62
2022/10/17 11:59:09;;;;;;;80.78;63.25;;;;;;;;;;6222495;28;20099;-63
2022/10/17 12:02:18;;;;;;;403.33;343.55;;;;;;;;;;6236592;28;20061;-63
2022/10/17 12:05:25;;;;;;;100.45;82.88;;;;;;;;;;6232680;28;20564;-64
2022/10/17 12:08:31;;;;;;;64.10;53.22;;;;;;;;;;6233491;28;20053;-62
2022/10/17 12:11:42;;;;;;;33.63;27.02;;;;;;;;;;6230283;28;20104;-62
2022/10/17 12:14:45;;;;;;;35.38;28.00;;;;;;;;;;6233686;28;20049;-63
2022/10/17 12:17:54;;;;;;;32.90;27.75;;;;;;;;;;6230386;28;20215;-64
2022/10/17 12:20:57;;;;;;;38.88;29.20;;;;;;;;;;6234746;28;20054;-64
2022/10/17 12:23:58;;;;;;;44.53;34.38;;;;;;;;;;6229176;28;20147;-66
2022/10/17 12:27:21;;;;;;;30.75;26.17;;;;;;;;;;6231907;28;20159;-69
2022/10/17 12:30:24;;;;;;;33.13;25.20;;;;;;;;;;6233076;28;20065;-65
2022/10/17 12:33:34;;;;;;;35.17;27.23;;;;;;;;;;6236787;28;20046;-65
2022/10/17 12:36:38;;;;;;;32.80;25.30;;;;;;;;;;6234984;28;20286;-65
2022/10/17 12:39:43;;;;;;;32.13;27.00;;;;;;;;;;6237622;28;20098;-65
2022/10/17 12:42:49;;;;;;;24.92;21.02;;;;;;;;;;6234927;28;20041;-64
2022/10/17 12:45:52;;;;;;;22.70;16.98;;;;;;;;;;6235683;28;20057;-67
2022/10/17 12:49:04;;;;;;;23.15;19.13;;;;;;;;;;6234249;28;20314;-64
2022/10/17 12:52:22;;;;;;;24.52;20.85;;;;;;;;;;6234382;28;20054;-65
2022/10/17 12:55:24;;;;;;;22.30;18.75;;;;;;;;;;6232101;28;20100;-64
2022/10/17 12:58:26;;;;;;;34.30;26.85;;;;;;;;;;6235227;28;20103;-69
2022/10/17 13:01:30;;;;;;;37.00;28.50;;;;;;;;;;6233080;28;20896;-66
2022/10/17 13:04:36;;;;;;;35.08;26.73;;;;;;;;;;6234869;28;20124;-65
2022/10/17 13:07:41;;;;;;;29.55;20.90;;;;;;;;;;6232726;28;20306;-65
2022/10/17 13:10:45;;;;;;;21.90;16.08;;;;;;;;;;6233103;28;20183;-66
2022/10/17 13:13:49;;;;;;;21.52;16.92;;;;;;;;;;6233354;28;20057;-65
2022/10/17 13:16:52;;;;;;;18.77;16.05;;;;;;;;;;6234091;28;20049;-66
2022/10/17 13:19:55;;;;;;;22.38;16.27;;;;;;;;;;6235294;28;20045;-66
2022/10/17 13:22:57;;;;;;;21.83;16.10;;;;;;;;;;6230220;28;20056;-66
2022/10/17 13:26:04;;;;;;;38.30;28.02;;;;;;;;;;6234048;28;20084;-65
2022/10/17 13:29:10;;;;;;;27.98;24.05;;;;;;;;;;6231299;28;20668;-64
2022/10/17 13:32:12;;;;;;;19.38;13.88;;;;;;;;;;6238524;28;20061;-64
2022/10/17 13:35:17;;;;;;;32.10;26.33;;;;;;;;;;6228884;28;20050;-63
2022/10/17 13:38:20;;;;;;;32.50;23.83;;;;;;;;;;6218383;28;20338;-64
2022/10/17 13:41:26;;;;;;;33.72;26.73;;;;;;;;;;6229152;28;20061;-64
2022/10/17 13:44:32;;;;;;;21.73;17.90;;;;;;;;;;6223875;28;20053;-67
2022/10/17 13:47:37;;;;;;;40.63;31.25;;;;;;;;;;6226964;28;20061;-67
2022/10/17 13:50:41;;;;;;;33.17;25.65;;;;;;;;;;6228783;28;20325;-67
2022/10/17 13:53:43;;;;;;;30.33;24.17;;;;;;;;;;6235506;28;20285;-67
2022/10/17 13:56:45;;;;;;;25.10;18.90;;;;;;;;;;6232787;28;20041;-64
2022/10/17 13:59:48;;;;;;;26.10;17.27;;;;;;;;;;6237749;28;20099;-67
2022/10/17 14:02:50;;;;;;;19.50;14.60;;;;;;;;;;6235127;28;20057;-67
2022/10/17 14:06:08;;;;;;;23.30;18.30;;;;;;;;;;6235928;28;20049;-65
2022/10/17 14:09:18;;;;;;;27.25;19.00;;;;;;;;;;6233816;28;20226;-67
2022/10/17 14:12:20;;;;;;;25.25;20.25;;;;;;;;;;6232435;28;20052;-66
2022/10/17 14:15:26;;;;;;;32.47;24.05;;;;;;;;;;6232590;28;20261;-67
2022/10/17 14:18:29;;;;;;;33.30;21.73;;;;;;;;;;6234183;28;20045;-68
2022/10/17 14:21:33;;;;;;;28.20;19.52;;;;;;;;;;6235882;28;20111;-67
2022/10/17 14:24:35;;;;;;;23.40;15.93;;;;;;;;;;6233461;28;20118;-67
2022/10/17 14:27:54;;;;;;;20.75;16.08;;;;;;;;;;6234174;28;20057;-67
2022/10/17 14:31:24;;;;;;;29.95;21.75;;;;;;;;;;6231814;28;20294;-67
2022/10/17 14:34:30;;;;;;;27.25;18.58;;;;;;;;;;6231513;28;20237;-67
2022/10/17 14:37:37;;;;;;;30.95;20.90;;;;;;;;;;6232620;28;20093;-65
2022/10/17 14:40:50;;;;;;;24.23;18.35;;;;;;;;;;6229627;28;20234;-67
2022/10/17 14:43:54;;;;;;;22.33;15.15;;;;;;;;;;6228321;28;20058;-67
2022/10/17 14:47:00;;;;;;;27.92;21.27;;;;;;;;;;6223638;28;20068;-66
2022/10/17 14:50:05;;;;;;;33.30;22.92;;;;;;;;;;6226303;28;20191;-66
2022/10/17 14:53:20;;;;;;;23.65;18.27;;;;;;;;;;6228102;28;20061;-67
2022/10/17 14:56:24;;;;;;;21.60;16.08;;;;;;;;;;6225478;28;20116;-67
2022/10/17 14:59:25;;;;;;;22.30;17.45;;;;;;;;;;6225579;28;20045;-64
2022/10/17 15:02:28;;;;;;;23.40;15.25;;;;;;;;;;6227578;28;20065;-67
2022/10/17 15:05:30;;;;;;;31.23;20.38;;;;;;;;;;6226998;28;20058;-67
2022/10/17 15:08:33;;;;;;;30.30;20.77;;;;;;;;;;6226258;28;20111;-66
2022/10/17 15:11:35;;;;;;;32.13;22.50;;;;;;;;;;6226793;28;20100;-67
2022/10/17 15:14:36;;;;;;;30.02;20.90;;;;;;;;;;6226313;28;20107;-67
2022/10/17 15:17:38;;;;;;;36.45;23.73;;;;;;;;;;6228548;28;20123;-66
2022/10/17 15:20:40;;;;;;;35.72;24.42;;;;;;;;;;6229425;28;20087;-67
2022/10/17 15:23:43;;;;;;;25.50;19.17;;;;;;;;;;6226756;28;20133;-64
2022/10/17 15:26:44;;;;;;;;;;;;;;;;;;6225733;28;20054;-66
2022/10/17 15:29:49;;;;;;;33.60;21.35;;;;;;;;;;6225883;28;20024;-66
2022/10/17 15:32:51;;;;;;;33.10;21.30;;;;;;;;;;6224155;28;20306;-66
2022/10/17 15:35:52;;;;;;;34.77;25.10;;;;;;;;;;6232117;28;20061;-66
2022/10/17 15:38:57;;;;;;;33.78;21.02;;;;;;;;;;6231756;28;20786;-66
2022/10/17 15:41:59;;;;;;;29.48;19.85;;;;;;;;;;6230277;28;20119;-66
2022/10/17 15:45:00;;;;;;;34.17;23.98;;;;;;;;;;6231314;28;20054;-66
2022/10/17 15:48:06;;;;;;;28.17;20.05;;;;;;;;;;6230192;28;20052;-66
2022/10/17 15:51:07;;;;;;;36.85;24.75;;;;;;;;;;6233182;28;20050;-66
2022/10/17 15:54:10;;;;;;;31.13;21.55;;;;;;;;;;6231780;28;20100;-66
2022/10/17 15:57:17;;;;;;;26.95;17.77;;;;;;;;;;6230267;28;20057;-66
2022/10/17 16:00:20;;;;;;;36.47;23.88;;;;;;;;;;6231314;28;20325;-66
2022/10/17 16:03:22;;;;;;;32.55;23.42;;;;;;;;;;6232355;28;20111;-67
2022/10/17 16:06:24;;;;;;;38.75;24.98;;;;;;;;;;6229901;28;20053;-65
2022/10/17 16:09:28;;;;;;;35.42;22.80;;;;;;;;;;6229290;28;20069;-66
2022/10/17 16:12:34;;;;;;;36.63;24.55;;;;;;;;;;6232046;28;20050;-66
2022/10/17 16:15:36;;;;;;;32.67;21.70;;;;;;;;;;6232558;28;20060;-67
2022/10/17 16:18:37;;;;;;;34.42;22.23;;;;;;;;;;6231645;28;20273;-66
2022/10/17 16:21:40;;;;;;;29.90;21.40;;;;;;;;;;6231234;28;20053;-66
2022/10/17 16:24:43;;;;;;;31.95;22.20;;;;;;;;;;6228609;28;20360;-65
2022/10/17 16:27:46;;;;;;;31.73;20.33;;;;;;;;;;6230810;28;20049;-66
2022/10/17 16:30:48;;;;;;;32.80;21.38;;;;;;;;;;6229226;28;20056;-65
2022/10/17 16:33:51;;;;;;;29.73;20.20;;;;;;;;;;6228697;28;20241;-66
2022/10/17 16:36:53;;;;;;;33.83;23.75;;;;;;;;;;6230908;28;20054;-65
2022/10/17 16:39:56;;;;;;;30.13;20.75;;;;;;;;;;6229124;28;20054;-66
2022/10/17 16:42:58;;;;;;;30.77;21.83;;;;;;;;;;6230832;28;20125;-64
2022/10/17 16:45:59;;;;;;;29.02;20.60;;;;;;;;;;6230727;28;20054;-66
2022/10/17 16:49:01;;;;;;;30.83;20.33;;;;;;;;;;6228501;28;20073;-66
2022/10/17 16:52:02;;;;;;;39.40;24.25;;;;;;;;;;6232555;28;20069;-65
2022/10/17 16:55:07;;;;;;;35.47;22.70;;;;;;;;;;6232880;28;20049;-66
2022/10/17 16:58:08;;;;;;;39.33;23.92;;;;;;;;;;6228694;28;20111;-64
2022/10/17 17:01:12;;;;;;;43.35;25.90;;;;;;;;;;6228950;28;20053;-65
2022/10/17 17:04:14;;;;;;;35.08;23.85;;;;;;;;;;6230421;28;20060;-64
2022/10/17 17:07:17;;;;;;;37.17;24.92;;;;;;;;;;6229813;28;20104;-66
2022/10/17 17:10:20;;;;;;;35.40;23.80;;;;;;;;;;6228660;28;20057;-65
2022/10/17 17:13:21;;;;;;;42.40;24.98;;;;;;;;;;6229604;28;20195;-65
2022/10/17 17:16:24;;;;;;;37.80;25.38;;;;;;;;;;6228428;28;20042;-65
2022/10/17 17:19:26;;;;;;;36.78;24.10;;;;;;;;;;6229346;28;20184;-66
2022/10/17 17:22:27;;;;;;;36.08;23.58;;;;;;;;;;6231929;28;20049;-64
2022/10/17 17:25:30;;;;;;;37.15;24.25;;;;;;;;;;6228063;28;20058;-65
2022/10/17 17:28:33;;;;;;;35.38;24.38;;;;;;;;;;6221250;28;20092;-66
2022/10/17 17:31:37;;;;;;;42.08;26.63;;;;;;;;;;6234631;28;20073;-65
2022/10/17 17:34:39;;;;;;;41.50;27.13;;;;;;;;;;6231193;28;20049;-64
2022/10/17 17:37:40;;;;;;;40.33;26.42;;;;;;;;;;6230402;28;20050;-66
2022/10/17 17:40:47;;;;;;;40.78;26.88;;;;;;;;;;6232124;28;20125;-68
2022/10/17 17:43:49;;;;;;;41.92;26.17;;;;;;;;;;6228972;28;20049;-65
2022/10/17 17:46:51;;;;;;;41.67;27.03;;;;;;;;;;6232712;28;20164;-65
2022/10/17 17:49:52;;;;;;;48.13;27.88;;;;;;;;;;6233199;28;20908;-66
2022/10/17 17:52:54;;;;;;;41.22;28.15;;;;;;;;;;6234308;28;20312;-65
2022/10/17 17:56:04;;;;;;;43.38;28.15;;;;;;;;;;6228801;28;20054;-66